Terminal Aerodrome Forecast
Issued by NWS

Home | Current Version | Previous Version | Text Only | Print | Product List | Glossary On
Versions: 1 2 3 4 5 6 7 8 9 10 11 12 13 14
000
FTUS42 TJSJ 271143
TAFIST
TAF
TIST 271143Z 2712/2812 07006KT P6SM VCSH FEW040
     FM271400 12012KT P6SM FEW025 SCT040
     FM271600 12013KT P6SM VCSH SCT028 SCT040
     FM272300 09008KT P6SM FEW025=

USA.gov is the U.S. government's official web portal to all federal, state and local government web resources and services.